Faust, Utah
Current Conditions -  °F | °C
As of 11:48 AM on Monday 20 Oct 2014 (Local Time) from KPVU Reporting Station
Few Clouds Few Clouds  
Wind Chill: 66°   Ceiling: Unl
Heat Index: 66°   Visibility: 15mi
Dew Point: 37°   Wind: 5mph
Humidity: 35%   Direction: 110°ESE
Pressure: 30.09"   Gusts: NA
Location:  40.0384°N, 112.37°W
Report Text: KPVU 201748Z 11004KT 15SM FEW120 19/03 A3009
Loading
Personal Weather Stations






























Interactive Weather Map
Tropical Storm Tracking
New forecast layout! Learn more

10-Day Weather Forecast

Advertisements
Track Severe Weather on mobile